Time;durP1;ratioP1;P1;durP2;ratioP2;P2;SDS_P1;SDS_P2;PMS_P1;PMS_P2;Temp;Humidity;BMP_temperature;BMP_pressure;BME280_temperature;BME280_humidity;BME280_pressure;Samples;Min_cycle;Max_cycle;Signal;HPM_P1;HPM_P2
2022/10/02 00:01:51;;;;;;;17.70;4.85;;;;;;;;;;5014711;28;20079;-65
2022/10/02 00:04:27;;;;;;;21.52;5.22;;;;;;;;;;5028171;28;20037;-66
2022/10/02 00:06:56;;;;;;;15.20;4.97;;;;;;;;;;5028825;28;20021;-66
2022/10/02 00:09:25;;;;;;;24.25;5.32;;;;;;;;;;5027322;28;20498;-64
2022/10/02 00:11:52;;;;;;;21.27;3.65;;;;;;;;;;5027892;28;20021;-66
2022/10/02 00:14:19;;;;;;;26.35;5.07;;;;;;;;;;5030075;28;20543;-65
2022/10/02 00:16:49;;;;;;;19.20;4.90;;;;;;;;;;5030609;28;20497;-66
2022/10/02 00:19:15;;;;;;;16.13;4.47;;;;;;;;;;5032381;28;20033;-66
2022/10/02 00:21:46;;;;;;;28.38;5.85;;;;;;;;;;5034238;28;20092;-66
2022/10/02 00:24:16;;;;;;;19.80;4.88;;;;;;;;;;5028982;28;20025;-66
2022/10/02 00:27:04;;;;;;;16.23;4.43;;;;;;;;;;5029636;28;20492;-66
2022/10/02 00:29:29;;;;;;;14.80;3.92;;;;;;;;;;5027617;28;20021;-66
2022/10/02 00:32:03;;;;;;;26.20;4.57;;;;;;;;;;5029435;28;20026;-65
2022/10/02 00:34:38;;;;;;;22.35;5.18;;;;;;;;;;5027405;28;20276;-65
2022/10/02 00:37:21;;;;;;;22.38;5.68;;;;;;;;;;5028776;28;20180;-66
2022/10/02 00:40:04;;;;;;;28.58;5.13;;;;;;;;;;5028901;28;20021;-66
2022/10/02 00:42:35;;;;;;;20.50;4.45;;;;;;;;;;5027136;28;20022;-66
2022/10/02 00:45:18;;;;;;;19.50;4.25;;;;;;;;;;5029091;28;20029;-66
2022/10/02 00:48:03;;;;;;;22.40;4.22;;;;;;;;;;5029364;28;20021;-66
2022/10/02 00:50:28;;;;;;;20.42;3.90;;;;;;;;;;5036146;28;20092;-63
2022/10/02 00:53:13;;;;;;;22.60;4.73;;;;;;;;;;5026703;28;20630;-65
2022/10/02 00:55:49;;;;;;;23.52;4.20;;;;;;;;;;5027538;28;20299;-65
2022/10/02 00:58:33;;;;;;;33.15;4.65;;;;;;;;;;5031348;28;20072;-64
2022/10/02 01:01:01;;;;;;;26.25;5.00;;;;;;;;;;5033979;28;20037;-66
2022/10/02 01:03:29;;;;;;;13.93;4.28;;;;;;;;;;5028066;28;20048;-66
2022/10/02 01:05:54;;;;;;;18.15;3.38;;;;;;;;;;5028412;28;20029;-66
2022/10/02 01:08:20;;;;;;;22.27;4.10;;;;;;;;;;5019315;28;20016;-65
2022/10/02 01:10:46;;;;;;;38.88;5.93;;;;;;;;;;5028876;28;20018;-65
2022/10/02 01:13:11;;;;;;;22.98;4.40;;;;;;;;;;5028433;28;20683;-66
2022/10/02 01:15:38;;;;;;;23.45;5.18;;;;;;;;;;5043271;28;20013;-67
2022/10/02 01:18:05;;;;;;;34.78;4.93;;;;;;;;;;5030761;28;20029;-63
2022/10/02 01:20:33;;;;;;;33.13;5.25;;;;;;;;;;5033043;28;20350;-66
2022/10/02 01:23:01;;;;;;;26.35;4.30;;;;;;;;;;5028159;28;20018;-66
2022/10/02 01:25:27;;;;;;;30.83;4.88;;;;;;;;;;5026871;28;20117;-66
2022/10/02 01:27:53;;;;;;;27.50;5.15;;;;;;;;;;5029573;28;20096;-64
2022/10/02 01:30:18;;;;;;;23.33;4.78;;;;;;;;;;5013212;28;20029;-66
2022/10/02 01:32:57;;;;;;;31.23;4.75;;;;;;;;;;5028428;28;20045;-66
2022/10/02 01:35:24;;;;;;;30.85;4.18;;;;;;;;;;5022161;28;20021;-66
2022/10/02 01:37:50;;;;;;;25.30;5.43;;;;;;;;;;5029971;28;20032;-66
2022/10/02 01:40:42;;;;;;;21.30;4.10;;;;;;;;;;5030619;28;20033;-66
2022/10/02 01:43:10;;;;;;;25.45;5.63;;;;;;;;;;5026850;28;20132;-66
2022/10/02 01:45:37;;;;;;;34.33;4.82;;;;;;;;;;5032879;28;20440;-65
2022/10/02 01:48:12;;;;;;;25.08;5.32;;;;;;;;;;5033112;28;20021;-66
2022/10/02 01:50:51;;;;;;;28.20;4.93;;;;;;;;;;5032924;28;20087;-66
2022/10/02 01:53:36;;;;;;;30.35;3.90;;;;;;;;;;5031627;28;20668;-66
2022/10/02 01:56:17;;;;;;;29.00;4.28;;;;;;;;;;5030263;28;20069;-66
2022/10/02 01:58:53;;;;;;;18.60;3.72;;;;;;;;;;5032341;28;20010;-66
2022/10/02 02:01:27;;;;;;;20.02;4.65;;;;;;;;;;5030339;28;20025;-66
2022/10/02 02:03:58;;;;;;;24.27;4.03;;;;;;;;;;5033559;28;20107;-65
2022/10/02 02:06:36;;;;;;;27.95;6.28;;;;;;;;;;5034405;28;20017;-64
2022/10/02 02:09:20;;;;;;;26.00;4.80;;;;;;;;;;5032139;28;20367;-63
2022/10/02 02:11:52;;;;;;;25.55;5.90;;;;;;;;;;5011352;28;20018;-66
2022/10/02 02:14:31;;;;;;;32.83;5.90;;;;;;;;;;5028029;28;20032;-66
2022/10/02 02:17:01;;;;;;;37.40;5.75;;;;;;;;;;5027066;28;20029;-66
2022/10/02 02:19:29;;;;;;;25.38;3.47;;;;;;;;;;5032619;28;20108;-66
2022/10/02 02:22:00;;;;;;;22.58;4.38;;;;;;;;;;5039683;28;20112;-66
2022/10/02 02:24:25;;;;;;;;;;;;;;;;;;5028944;28;20021;-66
2022/10/02 02:26:52;;;;;;;25.90;4.13;;;;;;;;;;5030172;28;19916;-66
2022/10/02 02:29:18;;;;;;;27.88;5.03;;;;;;;;;;5030982;28;20084;-65
2022/10/02 02:31:49;;;;;;;23.23;4.00;;;;;;;;;;5031126;28;20017;-66
2022/10/02 02:34:17;;;;;;;29.10;5.05;;;;;;;;;;5029152;28;20029;-66
2022/10/02 02:36:44;;;;;;;19.90;4.47;;;;;;;;;;5030249;28;20051;-66
2022/10/02 02:39:11;;;;;;;22.52;4.40;;;;;;;;;;5026988;28;20017;-66
2022/10/02 02:41:39;;;;;;;24.48;5.53;;;;;;;;;;5032311;28;20532;-66
2022/10/02 02:44:07;;;;;;;27.33;4.38;;;;;;;;;;5031845;28;20041;-65
2022/10/02 02:47:02;;;;;;;25.08;4.60;;;;;;;;;;5031882;28;20017;-66
2022/10/02 02:49:23;;;;;;;31.17;4.40;;;;;;;;;;5030670;28;20997;-66
2022/10/02 02:51:48;;;;;;;33.30;4.20;;;;;;;;;;5030220;28;20028;-66
2022/10/02 02:54:17;;;;;;;25.23;4.28;;;;;;;;;;5031190;28;20021;-66
2022/10/02 02:56:44;;;;;;;25.30;4.45;;;;;;;;;;5029128;28;20028;-66
2022/10/02 02:59:10;;;;;;;22.38;4.25;;;;;;;;;;5032314;28;20564;-66
2022/10/02 03:01:35;;;;;;;30.85;5.47;;;;;;;;;;5041424;28;20029;-66
2022/10/02 03:04:00;;;;;;;34.85;3.97;;;;;;;;;;5030324;28;20040;-65
2022/10/02 03:06:35;;;;;;;28.73;4.93;;;;;;;;;;5030934;28;20100;-65
2022/10/02 03:09:01;;;;;;;33.20;4.15;;;;;;;;;;5030953;28;20474;-67
2022/10/02 03:11:38;;;;;;;27.10;4.95;;;;;;;;;;5029659;28;20075;-65
2022/10/02 03:14:21;;;;;;;27.00;5.22;;;;;;;;;;5029988;28;20025;-67
2022/10/02 03:16:53;;;;;;;30.10;4.88;;;;;;;;;;5030762;28;20033;-67
2022/10/02 03:19:24;;;;;;;37.67;5.88;;;;;;;;;;5029335;28;20428;-66
2022/10/02 03:22:08;;;;;;;26.02;4.60;;;;;;;;;;5031733;28;20022;-67
2022/10/02 03:24:49;;;;;;;28.70;4.30;;;;;;;;;;5035859;28;20106;-66
2022/10/02 03:27:33;;;;;;;25.98;4.88;;;;;;;;;;5033707;28;20100;-67
2022/10/02 03:30:02;;;;;;;18.85;4.35;;;;;;;;;;5030691;28;20025;-67
2022/10/02 03:32:28;;;;;;;22.52;4.28;;;;;;;;;;5031455;28;20610;-67
2022/10/02 03:34:56;;;;;;;24.92;4.82;;;;;;;;;;5030881;28;20079;-66
2022/10/02 03:37:26;;;;;;;26.00;5.28;;;;;;;;;;5029969;28;20136;-67
2022/10/02 03:39:51;;;;;;;42.72;5.60;;;;;;;;;;5035505;28;20021;-67
2022/10/02 03:42:20;;;;;;;40.90;5.72;;;;;;;;;;5030848;28;20458;-65
2022/10/02 03:44:45;;;;;;;30.40;4.82;;;;;;;;;;5030592;28;20065;-66
2022/10/02 03:47:10;;;;;;;30.37;5.33;;;;;;;;;;5030840;28;20052;-66
2022/10/02 03:49:35;;;;;;;42.53;4.85;;;;;;;;;;5029299;28;20874;-67
2022/10/02 03:52:00;;;;;;;36.37;5.23;;;;;;;;;;5031329;28;20052;-67
2022/10/02 03:54:30;;;;;;;29.40;4.80;;;;;;;;;;5029416;28;20768;-67
2022/10/02 03:56:56;;;;;;;38.22;6.50;;;;;;;;;;5028620;28;20021;-66
2022/10/02 03:59:35;;;;;;;45.42;5.45;;;;;;;;;;5027905;28;20065;-66
2022/10/02 04:02:02;;;;;;;32.47;5.03;;;;;;;;;;5027728;28;20040;-67
2022/10/02 04:04:30;;;;;;;26.17;4.18;;;;;;;;;;5025212;28;20405;-64
2022/10/02 04:07:00;;;;;;;29.30;4.85;;;;;;;;;;5029906;28;20493;-67
2022/10/02 04:09:32;;;;;;;34.38;4.68;;;;;;;;;;5026435;28;20018;-67
2022/10/02 04:12:01;;;;;;;18.08;4.35;;;;;;;;;;5029208;28;20025;-67
2022/10/02 04:14:34;;;;;;;40.38;4.68;;;;;;;;;;5028249;28;20017;-66
2022/10/02 04:17:04;;;;;;;31.52;4.53;;;;;;;;;;5029181;28;20025;-67
2022/10/02 04:19:36;;;;;;;37.67;6.35;;;;;;;;;;5028290;28;20048;-67
2022/10/02 04:22:05;;;;;;;41.22;5.47;;;;;;;;;;5029762;28;20025;-67
2022/10/02 04:24:33;;;;;;;30.30;4.97;;;;;;;;;;5028289;28;20030;-64
2022/10/02 04:27:17;;;;;;;43.65;5.05;;;;;;;;;;5027021;28;20162;-66
2022/10/02 04:29:46;;;;;;;33.33;4.07;;;;;;;;;;5023711;28;20467;-65
2022/10/02 04:32:15;;;;;;;38.85;4.15;;;;;;;;;;5027679;28;20022;-67
2022/10/02 04:34:41;;;;;;;57.37;5.27;;;;;;;;;;5029843;28;20025;-67
2022/10/02 04:37:25;;;;;;;28.85;5.07;;;;;;;;;;5030021;28;20103;-67
2022/10/02 04:40:13;;;;;;;22.98;5.18;;;;;;;;;;5028677;28;20033;-67
2022/10/02 04:42:44;;;;;;;39.50;6.00;;;;;;;;;;5030176;28;20470;-67
2022/10/02 04:45:09;;;;;;;33.05;4.47;;;;;;;;;;5030974;28;20082;-65
2022/10/02 04:47:41;;;;;;;38.53;4.77;;;;;;;;;;5030717;28;20025;-67
2022/10/02 04:50:26;;;;;;;38.78;5.57;;;;;;;;;;5027912;28;20057;-67
2022/10/02 04:53:11;;;;;;;37.55;5.93;;;;;;;;;;5029315;28;20022;-67
2022/10/02 04:55:39;;;;;;;35.00;4.60;;;;;;;;;;5031446;28;20108;-66
2022/10/02 04:58:19;;;;;;;28.48;4.25;;;;;;;;;;5026892;28;20084;-67
2022/10/02 05:00:47;;;;;;;39.83;6.22;;;;;;;;;;5029306;28;20025;-67
2022/10/02 05:03:25;;;;;;;39.20;6.22;;;;;;;;;;5027175;28;20458;-66
2022/10/02 05:06:02;;;;;;;48.22;6.28;;;;;;;;;;5032850;28;20036;-66
2022/10/02 05:08:53;;;;;;;37.60;4.43;;;;;;;;;;5027461;28;20056;-67
2022/10/02 05:11:30;;;;;;;35.45;5.38;;;;;;;;;;5032920;28;20044;-67
2022/10/02 05:14:04;;;;;;;34.25;5.45;;;;;;;;;;5029807;28;20112;-66
2022/10/02 05:16:42;;;;;;;41.15;5.70;;;;;;;;;;5042360;22;20033;-85
2022/10/02 05:19:19;;;;;;;37.78;4.93;;;;;;;;;;5027606;28;20040;-86
2022/10/02 05:21:51;;;;;;;36.10;4.35;;;;;;;;;;5032254;28;20043;-85
2022/10/02 05:24:42;;;;;;;31.10;5.72;;;;;;;;;;5035451;28;20033;-86
2022/10/02 05:27:17;;;;;;;42.83;5.47;;;;;;;;;;5030705;28;20020;-85
2022/10/02 05:29:42;;;;;;;40.58;6.30;;;;;;;;;;5032795;28;20126;-86
2022/10/02 05:32:16;;;;;;;42.97;8.07;;;;;;;;;;5033222;28;20017;-85
2022/10/02 05:34:44;;;;;;;24.08;5.18;;;;;;;;;;5053994;28;20020;-86
2022/10/02 05:37:09;;;;;;;28.23;5.57;;;;;;;;;;5035002;28;20028;-85
2022/10/02 05:39:39;;;;;;;35.60;5.57;;;;;;;;;;5053594;28;20024;-85
2022/10/02 05:42:10;;;;;;;34.58;5.25;;;;;;;;;;5031741;28;20275;-86
2022/10/02 05:44:37;;;;;;;32.03;5.07;;;;;;;;;;5034027;28;20029;-85
2022/10/02 05:47:11;;;;;;;44.28;5.55;;;;;;;;;;5030541;28;20009;-86
2022/10/02 05:49:50;;;;;;;31.38;5.78;;;;;;;;;;5032709;28;20021;-86
2022/10/02 05:52:20;;;;;;;33.00;5.45;;;;;;;;;;5032876;28;20045;-86
2022/10/02 05:54:57;;;;;;;40.67;6.93;;;;;;;;;;5049182;28;20029;-85
2022/10/02 05:57:26;;;;;;;35.35;7.32;;;;;;;;;;5027540;28;20021;-85
2022/10/02 05:59:59;;;;;;;37.65;5.53;;;;;;;;;;5047767;28;20025;-85
2022/10/02 06:02:37;;;;;;;29.73;5.85;;;;;;;;;;5030092;28;20040;-86
2022/10/02 06:05:05;;;;;;;29.58;7.90;;;;;;;;;;5032916;28;20108;-85
2022/10/02 06:07:32;;;;;;;35.17;9.23;;;;;;;;;;5052654;28;20008;-85
2022/10/02 06:10:05;;;;;;;50.15;14.60;;;;;;;;;;5030480;28;20020;-85
2022/10/02 06:12:37;;;;;;;51.72;16.00;;;;;;;;;;5057264;28;20017;-85
2022/10/02 06:15:09;;;;;;;30.83;6.90;;;;;;;;;;5031415;28;20029;-84
2022/10/02 06:17:43;;;;;;;37.55;6.88;;;;;;;;;;5027140;28;20459;-84
2022/10/02 06:20:27;;;;;;;25.50;5.70;;;;;;;;;;5020062;28;20025;-85
2022/10/02 06:23:11;;;;;;;28.58;4.65;;;;;;;;;;5030478;28;20121;-84
2022/10/02 06:25:39;;;;;;;26.60;4.72;;;;;;;;;;5034002;28;20097;-86
2022/10/02 06:28:07;;;;;;;24.42;4.03;;;;;;;;;;5047461;28;20366;-85
2022/10/02 06:30:34;;;;;;;24.20;3.90;;;;;;;;;;5027548;28;20019;-86
2022/10/02 06:33:08;;;;;;;23.77;3.38;;;;;;;;;;5029825;28;20398;-84
2022/10/02 06:35:36;;;;;;;16.40;3.55;;;;;;;;;;5029916;28;20039;-86
2022/10/02 06:38:21;;;;;;;23.33;3.78;;;;;;;;;;5031329;28;20029;-85
2022/10/02 06:41:07;;;;;;;26.45;3.63;;;;;;;;;;5032595;28;20051;-86
2022/10/02 06:43:44;;;;;;;16.35;3.85;;;;;;;;;;5030198;28;20020;-86
2022/10/02 06:46:13;;;;;;;21.73;4.65;;;;;;;;;;5031238;28;20028;-86
2022/10/02 06:48:39;;;;;;;23.20;5.47;;;;;;;;;;5031714;28;20017;-87
2022/10/02 06:51:22;;;;;;;21.98;4.53;;;;;;;;;;5030857;28;20032;-84
2022/10/02 06:53:56;;;;;;;30.75;6.05;;;;;;;;;;5031379;28;20025;-86
2022/10/02 06:56:36;;;;;;;20.23;4.30;;;;;;;;;;5032963;28;20099;-85
2022/10/02 06:59:05;;;;;;;20.38;4.35;;;;;;;;;;5033328;28;20025;-86
2022/10/02 07:01:36;;;;;;;26.63;4.82;;;;;;;;;;5048328;28;20033;-84
2022/10/02 07:04:34;;;;;;;20.73;4.13;;;;;;;;;;5029461;28;20127;-86
2022/10/02 07:07:15;;;;;;;17.45;4.85;;;;;;;;;;5012849;28;20045;-85
2022/10/02 07:09:54;;;;;;;23.45;4.50;;;;;;;;;;5028526;28;20029;-85
2022/10/02 07:12:34;;;;;;;22.23;4.95;;;;;;;;;;5033983;28;20101;-86
2022/10/02 07:15:22;;;;;;;15.52;4.22;;;;;;;;;;5031588;28;20035;-86
2022/10/02 07:18:20;;;;;;;15.20;3.15;;;;;;;;;;5026312;28;20071;-86
2022/10/02 07:21:11;;;;;;;20.13;4.72;;;;;;;;;;5025596;28;20456;-85
2022/10/02 07:24:11;;;;;;;15.05;2.90;;;;;;;;;;5045190;28;20036;-85
2022/10/02 07:26:55;;;;;;;14.95;3.38;;;;;;;;;;5019952;28;20512;-87
2022/10/02 07:30:09;;;;;;;;;;;;;;;;;;;;;
2022/10/02 07:33:07;;;;;;;20.75;4.90;;;;;;;;;;5037325;28;20033;-86
2022/10/02 07:35:45;;;;;;;24.88;4.70;;;;;;;;;;5007645;28;20025;-85
2022/10/02 07:38:42;;;;;;;21.05;4.15;;;;;;;;;;5045547;28;20032;-86
2022/10/02 07:41:25;;;;;;;20.65;4.05;;;;;;;;;;5027767;28;20333;-86
2022/10/02 07:44:11;;;;;;;22.45;3.78;;;;;;;;;;5028133;28;20033;-86
2022/10/02 07:47:08;;;;;;;10.55;2.88;;;;;;;;;;5025490;28;20111;-86
2022/10/02 07:49:49;;;;;;;10.27;2.88;;;;;;;;;;4990938;28;20072;-84
2022/10/02 07:52:17;;;;;;;12.07;2.92;;;;;;;;;;5019915;28;20377;-86
2022/10/02 07:58:04;;;;;;;24.45;4.38;;;;;;;;;;5015742;28;20090;-87
2022/10/02 08:00:43;;;;;;;;;;;;;;;;;;5026621;28;20545;-87
2022/10/02 08:03:34;;;;;;;14.25;3.45;;;;;;;;;;5041472;28;19919;-86
2022/10/02 08:06:00;;;;;;;15.82;3.50;;;;;;;;;;5046362;28;20067;-82
2022/10/02 08:08:55;;;;;;;15.43;2.92;;;;;;;;;;5022114;28;20115;-87
2022/10/02 08:11:39;;;;;;;15.38;2.30;;;;;;;;;;5044068;28;20024;-86
2022/10/02 08:14:07;;;;;;;17.35;2.58;;;;;;;;;;5019415;28;20486;-86
2022/10/02 08:16:53;;;;;;;19.15;3.00;;;;;;;;;;5039067;28;20052;-85
2022/10/02 08:20:38;;;;;;;18.42;3.10;;;;;;;;;;5048360;28;20489;-86
2022/10/02 08:25:47;;;;;;;15.05;2.78;;;;;;;;;;5014117;28;20036;-85
2022/10/02 08:28:38;;;;;;;19.67;3.53;;;;;;;;;;5066219;23;20042;-86
2022/10/02 08:31:16;;;;;;;15.07;2.90;;;;;;;;;;5013585;28;20517;-86
2022/10/02 08:34:48;;;;;;;12.77;3.00;;;;;;;;;;5018583;28;20756;-87
2022/10/02 08:37:09;;;;;;;12.65;3.60;;;;;;;;;;4972004;28;20058;-85
2022/10/02 08:39:52;;;;;;;17.75;3.30;;;;;;;;;;5017793;28;20026;-85
2022/10/02 08:42:49;;;;;;;;;;;;;;;;;;;;;
2022/10/02 08:45:51;;;;;;;;;;;;;;;;;;;;;
2022/10/02 08:48:16;;;;;;;;;;;;;;;;;;5022259;28;20133;-86
2022/10/02 08:51:00;;;;;;;;;;;;;;;;;;;;;
2022/10/02 08:54:05;;;;;;;12.18;2.90;;;;;;;;;;4997107;28;20145;-85
2022/10/02 09:00:06;;;;;;;17.35;3.38;;;;;;;;;;5019148;28;20086;-87
2022/10/02 09:02:59;;;;;;;9.57;2.88;;;;;;;;;;4996937;28;20065;-86
2022/10/02 09:05:46;;;;;;;13.40;2.47;;;;;;;;;;5005386;28;20117;-87
2022/10/02 09:11:49;;;;;;;19.50;3.45;;;;;;;;;;4972587;28;20157;-85
2022/10/02 09:14:36;;;;;;;13.18;2.33;;;;;;;;;;4986165;28;20520;-86
2022/10/02 09:17:31;;;;;;;17.13;2.45;;;;;;;;;;5005141;28;20034;-86
2022/10/02 09:20:15;;;;;;;15.45;1.85;;;;;;;;;;5005894;28;20049;-86
2022/10/02 09:22:52;;;;;;;17.42;2.47;;;;;;;;;;5004042;28;20037;-87
2022/10/02 09:25:39;;;;;;;17.60;2.03;;;;;;;;;;5001534;28;20442;-86
2022/10/02 09:31:39;;;;;;;17.55;3.38;;;;;;;;;;4999631;28;20109;-86
2022/10/02 09:34:33;;;;;;;15.45;2.30;;;;;;;;;;4985445;28;20522;-87
2022/10/02 09:37:19;;;;;;;11.35;2.08;;;;;;;;;;4986870;28;20047;-86
2022/10/02 09:40:03;;;;;;;12.75;3.00;;;;;;;;;;5002465;28;20494;-87
2022/10/02 09:42:52;;;;;;;12.13;2.05;;;;;;;;;;4987913;28;20087;-87
2022/10/02 09:45:56;;;;;;;10.77;2.25;;;;;;;;;;4986992;28;20445;-87
2022/10/02 09:48:43;;;;;;;16.73;2.35;;;;;;;;;;4927695;28;20548;-87
2022/10/02 09:54:48;;;;;;;20.98;1.80;;;;;;;;;;4979799;28;20034;-88
2022/10/02 10:00:58;;;;;;;18.23;3.85;;;;;;;;;;4960095;28;20474;-87
2022/10/02 10:10:09;;;;;;;14.63;1.98;;;;;;;;;;4965050;28;20022;-87
2022/10/02 10:12:56;;;;;;;8.27;1.88;;;;;;;;;;4910307;29;20031;-87
2022/10/02 10:15:33;;;;;;;23.75;2.47;;;;;;;;;;4919181;29;20034;-86
2022/10/02 10:28:04;;;;;;;12.82;2.22;;;;;;;;;;4928029;29;20074;-87
2022/10/02 10:39:58;;;;;;;8.23;1.50;;;;;;;;;;4929311;29;20066;-87
2022/10/02 10:42:24;;;;;;;10.27;1.98;;;;;;;;;;4941656;28;20037;-88
2022/10/02 10:45:18;;;;;;;11.13;1.70;;;;;;;;;;5008253;28;20029;-87
2022/10/02 10:47:59;;;;;;;9.30;2.47;;;;;;;;;;5004165;28;20018;-87
2022/10/02 10:50:24;;;;;;;;;;;;;;;;;;4989332;28;20022;-88
2022/10/02 10:53:11;;;;;;;8.20;1.50;;;;;;;;;;4992094;28;19909;-86
2022/10/02 10:55:39;;;;;;;6.93;2.10;;;;;;;;;;5005270;28;20022;-87
2022/10/02 10:58:27;;;;;;;7.40;1.75;;;;;;;;;;5011275;28;20393;-87
2022/10/02 11:01:12;;;;;;;7.72;1.58;;;;;;;;;;4981767;28;20037;-87
2022/10/02 11:03:52;;;;;;;7.63;1.55;;;;;;;;;;5024589;23;20046;-65
2022/10/02 11:06:33;;;;;;;9.13;1.60;;;;;;;;;;5029005;28;20320;-65
2022/10/02 11:09:03;;;;;;;12.05;2.10;;;;;;;;;;5030339;28;20072;-65
2022/10/02 11:11:36;;;;;;;12.90;1.38;;;;;;;;;;5004310;28;20014;-65
2022/10/02 11:14:02;;;;;;;13.05;1.73;;;;;;;;;;5010351;28;20136;-65
2022/10/02 11:16:29;;;;;;;10.18;1.70;;;;;;;;;;5059728;22;20132;-68
2022/10/02 11:18:58;;;;;;;10.32;2.17;;;;;;;;;;5031105;28;20526;-66
2022/10/02 11:21:29;;;;;;;13.45;2.20;;;;;;;;;;5024534;28;20055;-65
2022/10/02 11:24:13;;;;;;;14.85;1.90;;;;;;;;;;5032050;28;20029;-66
2022/10/02 11:26:57;;;;;;;11.32;2.08;;;;;;;;;;5027595;28;20436;-65
2022/10/02 11:29:41;;;;;;;14.05;2.42;;;;;;;;;;5031598;28;20500;-66
2022/10/02 11:32:18;;;;;;;14.30;2.42;;;;;;;;;;5033273;28;20025;-67
2022/10/02 11:34:43;;;;;;;19.95;4.93;;;;;;;;;;5029674;28;20027;-68
2022/10/02 11:37:29;;;;;;;11.67;2.00;;;;;;;;;;5031919;28;20389;-66
2022/10/02 11:40:13;;;;;;;12.02;2.38;;;;;;;;;;5029817;28;20276;-67
2022/10/02 11:42:41;;;;;;;13.13;2.28;;;;;;;;;;5031320;28;20474;-66
2022/10/02 11:45:07;;;;;;;12.30;3.00;;;;;;;;;;5031230;28;20060;-67
2022/10/02 11:47:32;;;;;;;5.95;1.63;;;;;;;;;;5030051;28;20041;-66
2022/10/02 11:50:17;;;;;;;5.37;1.60;;;;;;;;;;5030936;28;20036;-66
2022/10/02 11:53:02;;;;;;;11.80;2.50;;;;;;;;;;5030603;28;20041;-67
2022/10/02 11:55:45;;;;;;;17.92;2.35;;;;;;;;;;5028883;28;20040;-66
2022/10/02 11:58:30;;;;;;;22.83;2.47;;;;;;;;;;5031166;28;20505;-66
2022/10/02 12:01:04;;;;;;;13.93;2.70;;;;;;;;;;5030117;28;20026;-69
2022/10/02 12:03:38;;;;;;;7.35;2.25;;;;;;;;;;5013487;28;20468;-66
2022/10/02 12:06:16;;;;;;;14.32;2.20;;;;;;;;;;5030428;28;20029;-66
2022/10/02 12:08:41;;;;;;;19.50;2.28;;;;;;;;;;5032338;28;20009;-68
2022/10/02 12:11:06;;;;;;;10.35;2.03;;;;;;;;;;5030413;28;20509;-69
2022/10/02 12:13:53;;;;;;;11.05;2.00;;;;;;;;;;5031503;28;20382;-66
2022/10/02 12:16:18;;;;;;;7.40;1.80;;;;;;;;;;5028387;28;20021;-66
2022/10/02 12:18:46;;;;;;;14.02;2.17;;;;;;;;;;5038262;28;20015;-66
2022/10/02 12:26:58;;;;;;;13.77;2.60;;;;;;;;;;5028651;28;20028;-69
2022/10/02 12:29:39;;;;;;;9.88;2.35;;;;;;;;;;5028021;28;20021;-66
2022/10/02 12:32:13;;;;;;;11.50;2.60;;;;;;;;;;5034265;28;20485;-66
2022/10/02 12:34:44;;;;;;;8.10;2.05;;;;;;;;;;5027760;28;20021;-66
2022/10/02 12:37:09;;;;;;;;;;;;;;;;;;5026908;28;20880;-66
2022/10/02 12:39:37;;;;;;;12.30;2.30;;;;;;;;;;5028961;28;19931;-67
2022/10/02 12:42:07;;;;;;;15.25;3.38;;;;;;;;;;5028280;28;20029;-66
2022/10/02 12:44:33;;;;;;;7.40;1.85;;;;;;;;;;5023541;28;20021;-68
2022/10/02 12:47:04;;;;;;;10.60;2.53;;;;;;;;;;5026971;28;20022;-68
2022/10/02 12:49:29;;;;;;;12.70;2.40;;;;;;;;;;5029626;28;20014;-67
2022/10/02 12:52:12;;;;;;;13.25;3.17;;;;;;;;;;5032018;28;20498;-67
2022/10/02 12:54:50;;;;;;;8.52;2.28;;;;;;;;;;5011250;28;20068;-68
2022/10/02 12:57:54;;;;;;;11.93;1.92;;;;;;;;;;5029451;28;20493;-67
2022/10/02 13:00:38;;;;;;;18.65;3.13;;;;;;;;;;5030964;28;20022;-67
2022/10/02 13:03:04;;;;;;;16.38;2.30;;;;;;;;;;5028466;28;20098;-68
2022/10/02 13:05:30;;;;;;;10.32;2.15;;;;;;;;;;5028949;28;20032;-67
2022/10/02 13:08:08;;;;;;;13.73;2.40;;;;;;;;;;5031692;28;20026;-68
2022/10/02 13:10:40;;;;;;;8.75;2.53;;;;;;;;;;5030292;28;20028;-67
2022/10/02 13:13:12;;;;;;;14.55;2.20;;;;;;;;;;5020665;28;20029;-67
2022/10/02 13:15:57;;;;;;;13.43;2.38;;;;;;;;;;5028408;28;20520;-69
2022/10/02 13:18:32;;;;;;;9.63;2.10;;;;;;;;;;5028336;28;20392;-68
2022/10/02 13:21:12;;;;;;;10.52;2.42;;;;;;;;;;5027466;28;20025;-68
2022/10/02 13:23:44;;;;;;;8.38;2.47;;;;;;;;;;5028916;28;20591;-68
2022/10/02 13:26:12;;;;;;;13.32;2.33;;;;;;;;;;5028875;28;20137;-69
2022/10/02 13:28:37;;;;;;;14.65;2.08;;;;;;;;;;5029382;28;20017;-69
2022/10/02 13:31:05;;;;;;;14.77;2.60;;;;;;;;;;5029096;28;20063;-69
2022/10/02 13:33:49;;;;;;;12.65;2.67;;;;;;;;;;5026999;28;20268;-68
2022/10/02 13:36:20;;;;;;;10.48;2.65;;;;;;;;;;5042976;28;20017;-69
2022/10/02 13:38:45;;;;;;;11.57;2.63;;;;;;;;;;5026004;28;20021;-67
2022/10/02 13:41:12;;;;;;;11.98;2.25;;;;;;;;;;5032849;28;20025;-70
2022/10/02 13:43:56;;;;;;;9.65;2.35;;;;;;;;;;5025924;28;20110;-69
2022/10/02 13:46:36;;;;;;;9.07;2.80;;;;;;;;;;5032470;28;20056;-67
2022/10/02 13:49:01;;;;;;;;;;;;;;;;;;5026279;28;20488;-70
2022/10/02 13:52:00;;;;;;;12.75;2.35;;;;;;;;;;5032231;28;20004;-66
2022/10/02 13:54:25;;;;;;;10.55;3.40;;;;;;;;;;4998737;28;20556;-67
2022/10/02 13:57:05;;;;;;;11.80;2.67;;;;;;;;;;5031920;28;20021;-69
2022/10/02 13:59:30;;;;;;;;;;;;;;;;;;5034124;28;20087;-69
2022/10/02 14:02:03;;;;;;;10.70;2.78;;;;;;;;;;5031330;28;19909;-69
2022/10/02 14:04:47;;;;;;;13.80;2.80;;;;;;;;;;5033078;28;20449;-69
2022/10/02 14:07:27;;;;;;;13.70;2.75;;;;;;;;;;5030968;28;20029;-70
2022/10/02 14:10:11;;;;;;;9.90;3.33;;;;;;;;;;5028703;28;20107;-70
2022/10/02 14:12:59;;;;;;;17.63;2.95;;;;;;;;;;5024903;28;20025;-69
2022/10/02 14:15:49;;;;;;;13.30;3.08;;;;;;;;;;5019198;28;20389;-68
2022/10/02 14:18:38;;;;;;;14.13;2.60;;;;;;;;;;4993476;28;20034;-70
2022/10/02 14:21:09;;;;;;;16.42;2.53;;;;;;;;;;5028916;28;20398;-65
2022/10/02 14:23:57;;;;;;;12.95;2.97;;;;;;;;;;5030225;28;20040;-68
2022/10/02 14:26:41;;;;;;;11.05;2.70;;;;;;;;;;5032461;28;20009;-68
2022/10/02 14:29:24;;;;;;;14.30;3.65;;;;;;;;;;5037817;28;20032;-67
2022/10/02 14:31:59;;;;;;;9.95;2.70;;;;;;;;;;5029119;28;20466;-65
2022/10/02 14:34:27;;;;;;;12.80;2.97;;;;;;;;;;5027265;28;20409;-67
2022/10/02 14:37:15;;;;;;;7.97;2.83;;;;;;;;;;5029684;28;20078;-67
2022/10/02 14:39:40;;;;;;;12.48;3.45;;;;;;;;;;5028947;28;20075;-67
2022/10/02 14:42:24;;;;;;;11.85;4.20;;;;;;;;;;5031938;28;20037;-67
2022/10/02 14:44:55;;;;;;;16.67;4.40;;;;;;;;;;5025665;28;20549;-69
2022/10/02 14:47:20;;;;;;;14.32;4.07;;;;;;;;;;5029937;28;20040;-67
2022/10/02 14:50:12;;;;;;;16.80;3.73;;;;;;;;;;5026307;28;20486;-69
2022/10/02 14:52:52;;;;;;;13.88;3.97;;;;;;;;;;5015349;28;20341;-72
2022/10/02 14:55:37;;;;;;;15.07;4.32;;;;;;;;;;5029686;28;20028;-66
2022/10/02 14:58:11;;;;;;;16.08;3.83;;;;;;;;;;5027773;28;20056;-68
2022/10/02 15:01:03;;;;;;;19.20;4.03;;;;;;;;;;5029671;28;20044;-67
2022/10/02 15:03:35;;;;;;;13.68;3.60;;;;;;;;;;5024591;28;20017;-68
2022/10/02 15:06:05;;;;;;;13.20;3.42;;;;;;;;;;5035326;28;20025;-68
2022/10/02 15:08:38;;;;;;;14.27;3.63;;;;;;;;;;5030906;28;20017;-70
2022/10/02 15:11:04;;;;;;;12.35;4.47;;;;;;;;;;5032668;28;20440;-70
2022/10/02 15:13:29;;;;;;;17.60;4.07;;;;;;;;;;5047712;28;20144;-68
2022/10/02 15:18:53;;;;;;;17.50;4.22;;;;;;;;;;5030152;28;20259;-69
2022/10/02 15:21:39;;;;;;;20.17;4.25;;;;;;;;;;5048389;28;20019;-69
2022/10/02 15:24:22;;;;;;;11.20;3.67;;;;;;;;;;4998578;28;20114;-66
2022/10/02 15:26:53;;;;;;;14.20;3.72;;;;;;;;;;5029848;28;20032;-70
2022/10/02 15:29:41;;;;;;;16.13;3.97;;;;;;;;;;5031512;28;20014;-70
2022/10/02 15:32:17;;;;;;;18.08;5.38;;;;;;;;;;5028645;28;20021;-68
2022/10/02 15:34:45;;;;;;;20.02;5.22;;;;;;;;;;5026026;28;20017;-68
2022/10/02 15:37:20;;;;;;;14.93;3.53;;;;;;;;;;5029361;28;20116;-69
2022/10/02 15:39:59;;;;;;;15.07;5.35;;;;;;;;;;5035190;28;20100;-70
2022/10/02 15:42:43;;;;;;;16.27;4.43;;;;;;;;;;5032048;28;20087;-69
2022/10/02 15:45:21;;;;;;;20.88;4.43;;;;;;;;;;5029226;28;20119;-67
2022/10/02 15:48:18;;;;;;;13.40;3.85;;;;;;;;;;5030002;28;20037;-70
2022/10/02 15:50:49;;;;;;;16.33;3.65;;;;;;;;;;4974758;28;20061;-66
2022/10/02 15:53:33;;;;;;;10.40;4.07;;;;;;;;;;5027119;28;20013;-66
2022/10/02 15:56:05;;;;;;;14.25;3.75;;;;;;;;;;5029593;28;20021;-69
2022/10/02 15:58:59;;;;;;;13.52;3.97;;;;;;;;;;5026422;28;20533;-69
2022/10/02 16:01:24;;;;;;;13.02;3.53;;;;;;;;;;4956115;28;20043;-69
2022/10/02 16:03:53;;;;;;;10.18;3.83;;;;;;;;;;5028734;28;20029;-69
2022/10/02 16:06:33;;;;;;;10.35;3.00;;;;;;;;;;5028400;28;20041;-69
2022/10/02 16:09:26;;;;;;;11.15;3.45;;;;;;;;;;5027488;28;20030;-67
2022/10/02 16:12:06;;;;;;;9.20;3.28;;;;;;;;;;5029843;28;20014;-67
2022/10/02 16:14:41;;;;;;;14.15;4.00;;;;;;;;;;5021695;28;20021;-67
2022/10/02 16:17:26;;;;;;;17.50;3.88;;;;;;;;;;5040609;28;20505;-67
2022/10/02 16:19:57;;;;;;;17.40;3.10;;;;;;;;;;4975413;28;20037;-67
2022/10/02 16:22:28;;;;;;;18.27;3.63;;;;;;;;;;5024912;28;20386;-66
2022/10/02 16:25:12;;;;;;;13.13;3.80;;;;;;;;;;5027630;28;20375;-68
2022/10/02 16:28:10;;;;;;;20.02;4.13;;;;;;;;;;5025039;28;20032;-67